createdAt,value
2019-02-10T00:02:07.619Z,67.70
2019-02-10T00:04:33.429Z,67.96
2019-02-10T00:06:59.284Z,68.00
2019-02-10T00:09:25.131Z,67.90
2019-02-10T00:11:50.965Z,67.87
2019-02-10T00:14:16.904Z,67.73
2019-02-10T00:16:42.768Z,67.80
2019-02-10T00:19:08.692Z,67.54
2019-02-10T00:21:34.538Z,67.33
2019-02-10T00:24:00.383Z,67.50
2019-02-10T00:26:26.280Z,67.63
2019-02-10T00:28:52.099Z,67.82
2019-02-10T00:31:18.048Z,67.76
2019-02-10T00:33:43.889Z,67.88
2019-02-10T00:36:09.755Z,67.69
2019-02-10T00:38:35.595Z,67.65
2019-02-10T00:41:01.537Z,67.60
2019-02-10T00:43:27.398Z,67.72
2019-02-10T00:45:53.234Z,67.52
2019-02-10T00:48:19.101Z,67.43
2019-02-10T00:50:44.919Z,67.27
2019-02-10T00:53:11.067Z,67.28
2019-02-10T00:55:36.939Z,67.23
2019-02-10T00:58:02.984Z,67.46
2019-02-10T01:00:28.795Z,67.76
2019-02-10T01:02:54.779Z,67.48
2019-02-10T01:05:20.621Z,67.43
2019-02-10T01:07:47.154Z,67.46
2019-02-10T01:10:13.298Z,67.40
2019-02-10T01:12:39.157Z,67.10
2019-02-10T01:15:06.228Z,67.19
2019-02-10T01:17:32.056Z,67.06
2019-02-10T01:19:58.016Z,67.00
2019-02-10T01:22:23.832Z,66.67
2019-02-10T01:24:49.672Z,66.58
2019-02-10T01:27:15.491Z,66.54
2019-02-10T01:29:41.444Z,66.65
2019-02-10T01:32:07.382Z,66.61
2019-02-10T01:34:33.796Z,67.27
2019-02-10T01:36:59.615Z,67.85
2019-02-10T01:39:25.979Z,68.09
2019-02-10T01:41:51.825Z,68.04
2019-02-10T01:44:18.072Z,67.91
2019-02-10T01:46:43.906Z,68.33
2019-02-10T01:49:09.847Z,68.69
2019-02-10T01:51:35.675Z,68.69
2019-02-10T01:54:01.520Z,68.30
2019-02-10T01:56:27.521Z,68.41
2019-02-10T01:58:53.346Z,68.45
2019-02-10T02:01:19.201Z,68.51
2019-02-10T02:03:45.028Z,68.87
2019-02-10T02:06:10.871Z,69.06
2019-02-10T02:08:36.709Z,69.18
2019-02-10T02:11:02.564Z,69.33
2019-02-10T02:13:28.372Z,69.26
2019-02-10T02:15:54.217Z,69.71
2019-02-10T02:18:20.040Z,69.59
2019-02-10T02:20:45.892Z,69.83
2019-02-10T02:23:11.705Z,69.61
2019-02-10T02:25:37.550Z,69.71
2019-02-10T02:28:03.364Z,69.68
2019-02-10T02:30:29.216Z,69.63
2019-02-10T02:32:55.030Z,70.11
2019-02-10T02:35:20.839Z,70.53
2019-02-10T02:37:46.683Z,71.29
2019-02-10T02:40:12.618Z,71.69
2019-02-10T02:42:38.663Z,72.47
2019-02-10T02:45:09.902Z,73.25
2019-02-10T02:47:35.853Z,73.98
2019-02-10T02:50:01.880Z,75.67
2019-02-10T02:52:27.943Z,75.86
2019-02-10T02:54:53.773Z,77.07
2019-02-10T02:57:19.618Z,78.31
2019-02-10T02:59:45.434Z,79.36
2019-02-10T03:02:11.270Z,79.83
2019-02-10T03:04:37.099Z,80.42
2019-02-10T03:07:02.951Z,80.17
2019-02-10T03:09:28.762Z,80.43
2019-02-10T03:11:54.625Z,80.82
2019-02-10T03:14:20.444Z,81.12
2019-02-10T03:16:46.295Z,82.50
2019-02-10T03:19:12.316Z,83.02
2019-02-10T03:21:38.148Z,83.02
2019-02-10T03:24:04.090Z,83.91
2019-02-10T03:26:29.914Z,84.23
2019-02-10T03:28:55.750Z,84.65
2019-02-10T03:31:21.578Z,84.70
2019-02-10T03:33:47.414Z,84.81
2019-02-10T03:36:13.223Z,84.49
2019-02-10T03:38:39.060Z,84.47
2019-02-10T03:41:04.881Z,84.97
2019-02-10T03:43:31.028Z,84.87
2019-02-10T03:45:56.853Z,83.88
2019-02-10T03:48:22.711Z,84.69
2019-02-10T03:50:48.548Z,85.28
2019-02-10T03:53:14.378Z,85.78
2019-02-10T03:55:40.322Z,85.66
2019-02-10T03:58:06.293Z,85.12
2019-02-10T04:00:32.204Z,85.85
2019-02-10T04:02:58.041Z,85.75
2019-02-10T04:05:23.890Z,86.04
2019-02-10T04:07:49.708Z,85.74
2019-02-10T04:10:15.559Z,85.94
2019-02-10T04:12:41.376Z,86.36
2019-02-10T04:15:07.317Z,86.47
2019-02-10T04:17:33.133Z,86.15
2019-02-10T04:19:59.091Z,86.10
2019-02-10T04:22:24.916Z,86.10
2019-02-10T04:24:50.861Z,86.71
2019-02-10T04:27:16.682Z,86.54
2019-02-10T04:29:42.525Z,86.36
2019-02-10T04:32:08.352Z,87.04
2019-02-10T04:34:34.172Z,87.02
2019-02-10T04:37:00.013Z,86.91
2019-02-10T04:39:25.829Z,86.54
2019-02-10T04:41:51.666Z,86.81
2019-02-10T04:44:17.486Z,86.54
2019-02-10T04:46:43.331Z,86.82
2019-02-10T04:49:09.148Z,87.03
2019-02-10T04:51:34.988Z,87.28
2019-02-10T04:54:00.822Z,87.19
2019-02-10T04:56:26.689Z,87.74
2019-02-10T04:58:52.507Z,87.46
2019-02-10T05:01:18.847Z,87.50
2019-02-10T05:03:44.755Z,87.45
2019-02-10T05:06:10.615Z,87.48
2019-02-10T05:08:36.548Z,87.32
2019-02-10T05:11:02.502Z,86.76
2019-02-10T05:13:28.324Z,87.77
2019-02-10T05:15:54.133Z,87.36
2019-02-10T05:18:19.980Z,87.22
2019-02-10T05:20:45.822Z,86.92
2019-02-10T05:23:11.676Z,86.98
2019-02-10T05:25:37.498Z,86.77
2019-02-10T05:28:03.420Z,86.94
2019-02-10T05:30:29.176Z,86.90
2019-02-10T05:32:55.030Z,86.82
2019-02-10T05:35:20.853Z,86.73
2019-02-10T05:37:46.696Z,86.54
2019-02-10T05:40:12.522Z,86.58
2019-02-10T05:42:38.381Z,86.49
2019-02-10T05:45:06.193Z,86.65
2019-02-10T05:47:32.068Z,86.38
2019-02-10T05:49:57.892Z,86.55
2019-02-10T05:52:23.741Z,86.87
2019-02-10T05:54:49.620Z,86.61
2019-02-10T05:57:15.441Z,86.55
2019-02-10T05:59:41.287Z,86.79
2019-02-10T06:02:14.997Z,86.85
2019-02-10T06:04:42.568Z,86.78
2019-02-10T06:07:13.965Z,86.95
2019-02-10T06:09:39.924Z,86.69
2019-02-10T06:12:05.738Z,86.36
2019-02-10T06:14:31.572Z,87.03
2019-02-10T06:16:57.383Z,86.97
2019-02-10T06:19:23.835Z,87.14
2019-02-10T06:21:49.649Z,87.06
2019-02-10T06:24:15.490Z,86.95
2019-02-10T06:26:41.304Z,87.05
2019-02-10T06:29:07.114Z,86.90
2019-02-10T06:31:32.962Z,86.89
2019-02-10T06:33:58.782Z,87.26
2019-02-10T06:36:24.608Z,87.45
2019-02-10T06:38:50.551Z,86.84
2019-02-10T06:41:16.393Z,87.20
2019-02-10T06:43:42.219Z,87.31
2019-02-10T06:46:08.847Z,87.38
2019-02-10T06:48:34.657Z,87.19
2019-02-10T06:51:00.508Z,87.42
2019-02-10T06:53:26.344Z,87.45
2019-02-10T06:55:52.223Z,87.48
2019-02-10T06:58:18.016Z,87.30
2019-02-10T07:00:45.768Z,87.21
2019-02-10T07:03:40.445Z,87.38
2019-02-10T07:06:07.182Z,87.25
2019-02-10T07:08:33.011Z,86.91
2019-02-10T07:10:58.852Z,86.61
2019-02-10T07:13:33.831Z,87.01
2019-02-10T07:16:26.552Z,85.93
2019-02-10T07:19:29.722Z,85.37
2019-02-10T07:21:55.577Z,85.94
2019-02-10T07:24:43.314Z,84.86
2019-02-10T07:27:18.503Z,84.60
2019-02-10T07:29:54.191Z,83.40
2019-02-10T07:32:23.352Z,83.20
2019-02-10T07:35:23.263Z,82.60
2019-02-10T07:37:55.900Z,82.07
2019-02-10T07:40:58.637Z,81.54
2019-02-10T07:43:37.592Z,80.67
2019-02-10T07:46:22.071Z,80.56
2019-02-10T07:48:57.728Z,80.27
2019-02-10T07:51:27.367Z,79.58
2019-02-10T07:53:57.023Z,78.90
2019-02-10T07:56:41.686Z,78.53
2019-02-10T07:59:44.995Z,78.17
2019-02-10T08:02:40.708Z,77.46
2019-02-10T08:05:12.996Z,77.83
2019-02-10T08:07:59.545Z,77.06
2019-02-10T08:10:29.239Z,76.35
2019-02-10T08:13:07.723Z,76.77
2019-02-10T08:15:46.469Z,75.90
2019-02-10T08:18:19.127Z,76.00
2019-02-10T08:20:51.789Z,75.66
2019-02-10T08:23:42.155Z,76.09
2019-02-10T08:26:20.751Z,75.67
2019-02-10T08:29:17.334Z,75.19
2019-02-10T08:32:15.818Z,75.07
2019-02-10T08:35:05.432Z,75.28
2019-02-10T08:37:38.058Z,75.35
2019-02-10T08:40:16.533Z,75.29
2019-02-10T08:43:04.478Z,74.82
2019-02-10T08:45:36.892Z,74.71
2019-02-10T08:48:18.626Z,74.80
2019-02-10T08:51:09.701Z,75.47
2019-02-10T08:53:35.652Z,74.81
2019-02-10T08:56:01.517Z,74.49
2019-02-10T08:58:27.373Z,74.83
2019-02-10T09:00:53.236Z,74.38
2019-02-10T09:03:19.855Z,74.93
2019-02-10T09:05:46.157Z,74.94
2019-02-10T09:08:11.990Z,74.92
2019-02-10T09:10:37.883Z,74.96
2019-02-10T09:13:03.737Z,76.34
2019-02-10T09:15:29.697Z,76.97
2019-02-10T09:17:55.812Z,78.21
2019-02-10T09:20:21.752Z,79.97
2019-02-10T09:22:47.575Z,81.41
2019-02-10T09:25:13.457Z,84.20
2019-02-10T09:27:39.272Z,87.93
2019-02-10T09:30:08.940Z,89.26
2019-02-10T09:32:34.821Z,91.57
2019-02-10T09:35:00.639Z,91.44
2019-02-10T09:37:26.482Z,88.13
2019-02-10T09:39:52.349Z,88.09
2019-02-10T09:42:18.272Z,87.65
2019-02-10T09:44:44.131Z,87.31
2019-02-10T09:47:09.968Z,87.61
2019-02-10T09:49:35.861Z,87.75
2019-02-10T09:52:01.679Z,87.96
2019-02-10T09:54:27.512Z,88.00
2019-02-10T09:56:53.372Z,88.28
2019-02-10T09:59:19.307Z,88.49
2019-02-10T10:01:45.139Z,88.29
2019-02-10T10:04:10.994Z,88.03
2019-02-10T10:06:37.332Z,88.09
2019-02-10T10:09:04.699Z,87.27
2019-02-10T10:11:30.511Z,86.95
2019-02-10T10:13:56.375Z,87.27
2019-02-10T10:16:22.428Z,87.24
2019-02-10T10:18:48.288Z,86.74
2019-02-10T10:21:14.171Z,86.53
2019-02-10T10:23:40.007Z,86.42
2019-02-10T10:26:08.039Z,86.44
2019-02-10T10:28:33.915Z,85.89
2019-02-10T10:30:59.755Z,86.34
2019-02-10T10:33:25.779Z,86.52
2019-02-10T10:35:51.627Z,85.98
2019-02-10T10:38:17.849Z,86.39
2019-02-10T10:40:44.184Z,87.33
2019-02-10T10:43:10.037Z,86.01
2019-02-10T10:45:36.001Z,86.82
2019-02-10T10:48:01.818Z,86.43
2019-02-10T10:50:27.931Z,86.38
2019-02-10T10:52:53.859Z,85.74
2019-02-10T10:55:19.799Z,86.33
2019-02-10T10:57:45.624Z,86.57
2019-02-10T11:00:14.625Z,85.88
2019-02-10T11:02:40.451Z,84.62
2019-02-10T11:05:06.433Z,84.84
2019-02-10T11:07:32.384Z,84.75
2019-02-10T11:09:58.255Z,84.21
2019-02-10T11:12:24.092Z,84.39
2019-02-10T11:14:50.186Z,86.20
2019-02-10T11:17:16.007Z,86.95
2019-02-10T11:19:41.896Z,88.11
2019-02-10T11:22:07.759Z,88.39
2019-02-10T11:24:33.642Z,88.60
2019-02-10T11:26:59.458Z,89.82
2019-02-10T11:29:25.312Z,89.39
2019-02-10T11:31:51.228Z,88.62
2019-02-10T11:34:17.039Z,87.96
2019-02-10T11:36:42.912Z,87.27
2019-02-10T11:39:08.859Z,87.12
2019-02-10T11:41:34.728Z,90.07
2019-02-10T11:44:01.299Z,89.93
2019-02-10T11:46:27.835Z,90.16
2019-02-10T11:48:53.676Z,89.90
2019-02-10T11:51:19.680Z,89.96
2019-02-10T11:53:46.800Z,88.59
2019-02-10T11:56:12.945Z,88.36
2019-02-10T11:58:38.788Z,88.66
2019-02-10T12:01:04.865Z,86.19
2019-02-10T12:03:30.719Z,85.33
2019-02-10T12:06:02.535Z,85.16
2019-02-10T12:08:35.392Z,85.60
2019-02-10T12:10:56.578Z,85.44
2019-02-10T12:13:22.448Z,84.87
2019-02-10T12:15:48.291Z,87.33
2019-02-10T12:18:14.156Z,86.62
2019-02-10T12:20:39.962Z,85.67
2019-02-10T12:23:06.034Z,84.54
2019-02-10T12:25:32.085Z,84.94
2019-02-10T12:27:58.249Z,84.45
2019-02-10T12:30:24.761Z,84.47
2019-02-10T12:32:50.733Z,84.18
2019-02-10T12:35:16.592Z,85.70
2019-02-10T12:37:42.470Z,85.67
2019-02-10T12:40:10.161Z,86.13
2019-02-10T12:42:36.027Z,85.02
2019-02-10T12:45:03.231Z,86.66
2019-02-10T12:47:29.070Z,88.02
2019-02-10T12:49:55.453Z,88.74
2019-02-10T12:52:21.284Z,86.86
2019-02-10T12:54:47.362Z,86.99
2019-02-10T12:57:13.324Z,84.97
2019-02-10T12:59:39.293Z,85.23
2019-02-10T13:02:05.144Z,84.87
2019-02-10T13:04:30.998Z,84.58
2019-02-10T13:06:56.824Z,84.47
2019-02-10T13:09:23.832Z,84.69
2019-02-10T13:11:49.668Z,83.78
2019-02-10T13:14:15.537Z,83.52
2019-02-10T13:16:41.396Z,82.78
2019-02-10T13:19:07.339Z,83.62
2019-02-10T13:21:33.732Z,82.20
2019-02-10T13:23:59.560Z,78.88
2019-02-10T13:26:25.422Z,76.17
2019-02-10T13:28:51.267Z,73.62
2019-02-10T13:31:17.206Z,72.37
2019-02-10T13:33:43.095Z,73.94
2019-02-10T13:36:08.959Z,72.95
2019-02-10T13:38:34.810Z,73.72
2019-02-10T13:41:00.746Z,75.11
2019-02-10T13:43:33.409Z,75.19
2019-02-10T13:45:54.472Z,77.63
2019-02-10T13:48:20.360Z,77.49
2019-02-10T13:50:46.251Z,78.60
2019-02-10T13:53:12.208Z,77.98
2019-02-10T13:55:38.168Z,77.76
2019-02-10T13:58:04.125Z,77.36
2019-02-10T14:00:30.119Z,77.67
2019-02-10T14:02:56.005Z,77.20
2019-02-10T14:05:21.836Z,76.90
2019-02-10T14:07:47.803Z,77.31
2019-02-10T14:10:25.213Z,74.88
2019-02-10T14:12:45.696Z,75.42
2019-02-10T14:15:14.175Z,74.48
2019-02-10T14:17:40.030Z,74.62
2019-02-10T14:20:09.243Z,75.06
2019-02-10T14:22:35.243Z,75.26
2019-02-10T14:25:01.101Z,76.70
2019-02-10T14:27:26.981Z,77.63
2019-02-10T14:29:53.601Z,77.73
2019-02-10T14:32:19.422Z,78.72
2019-02-10T14:34:45.297Z,79.69
2019-02-10T14:37:11.273Z,80.37
2019-02-10T14:39:37.170Z,80.70
2019-02-10T14:42:03.633Z,81.57
2019-02-10T14:44:29.796Z,83.95
2019-02-10T14:46:55.710Z,85.33
2019-02-10T14:49:22.816Z,88.04
2019-02-10T14:51:48.766Z,87.99
2019-02-10T14:54:14.702Z,88.59
2019-02-10T14:56:40.626Z,88.69
2019-02-10T14:59:06.543Z,91.01
2019-02-10T15:01:33.065Z,92.43
2019-02-10T15:03:58.954Z,93.18
2019-02-10T15:06:24.891Z,92.91
2019-02-10T15:08:50.867Z,93.13
2019-02-10T15:11:16.749Z,92.90
2019-02-10T15:13:42.573Z,91.70
2019-02-10T15:16:08.561Z,90.45
2019-02-10T15:18:34.513Z,90.58
2019-02-10T15:21:00.509Z,91.01
2019-02-10T15:23:26.466Z,90.57
2019-02-10T15:25:52.910Z,90.15
2019-02-10T15:28:19.226Z,87.79
2019-02-10T15:30:45.335Z,88.06
2019-02-10T15:33:12.251Z,88.13
2019-02-10T15:35:38.161Z,87.83
2019-02-10T15:38:04.029Z,86.52
2019-02-10T15:40:30.003Z,85.72
2019-02-10T15:42:55.863Z,86.33
2019-02-10T15:45:22.078Z,86.51
2019-02-10T15:47:47.939Z,85.93
2019-02-10T15:50:13.850Z,86.93
2019-02-10T15:52:40.086Z,86.10
2019-02-10T15:55:09.811Z,86.26
2019-02-10T15:57:36.162Z,87.90
2019-02-10T16:00:04.839Z,93.77
2019-02-10T16:02:32.147Z,96.18
2019-02-10T16:04:58.004Z,96.19
2019-02-10T16:07:23.866Z,91.82
2019-02-10T16:09:50.100Z,91.25
2019-02-10T16:12:15.966Z,88.68
2019-02-10T16:14:44.555Z,88.57
2019-02-10T16:17:10.437Z,88.11
2019-02-10T16:19:39.401Z,87.64
2019-02-10T16:22:07.952Z,86.52
2019-02-10T16:24:36.226Z,87.26
2019-02-10T16:27:04.966Z,87.21
2019-02-10T16:29:33.253Z,86.90
2019-02-10T16:32:02.184Z,86.34
2019-02-10T16:34:30.532Z,85.20
2019-02-10T16:36:59.218Z,84.54
2019-02-10T16:39:27.618Z,85.16
2019-02-10T16:41:56.499Z,84.42
2019-02-10T16:44:26.780Z,83.64
2019-02-10T16:46:59.490Z,83.62
2019-02-10T16:49:28.060Z,83.60
2019-02-10T16:51:57.134Z,83.80
2019-02-10T16:54:25.178Z,83.08
2019-02-10T16:56:51.049Z,82.55
2019-02-10T16:59:17.210Z,82.40
2019-02-10T17:01:43.107Z,82.26
2019-02-10T17:04:09.098Z,82.26
2019-02-10T17:06:34.957Z,81.90
2019-02-10T17:09:00.854Z,82.56
2019-02-10T17:11:26.725Z,81.96
2019-02-10T17:13:52.884Z,81.97
2019-02-10T17:16:21.762Z,81.41
2019-02-10T17:18:50.444Z,80.92
2019-02-10T17:21:20.748Z,80.49
2019-02-10T17:23:49.412Z,81.23
2019-02-10T17:26:17.906Z,79.28
2019-02-10T17:28:46.444Z,79.28
2019-02-10T17:31:14.754Z,80.32
2019-02-10T17:33:45.013Z,79.12
2019-02-10T17:36:16.379Z,79.86
2019-02-10T17:38:45.743Z,79.26
2019-02-10T17:41:22.694Z,78.29
2019-02-10T17:43:47.343Z,78.99
2019-02-10T17:46:13.332Z,78.56
2019-02-10T17:48:40.412Z,79.26
2019-02-10T17:51:06.430Z,79.05
2019-02-10T17:53:35.319Z,78.71
2019-02-10T17:56:04.257Z,79.39
2019-02-10T17:58:33.117Z,77.48
2019-02-10T18:01:01.976Z,77.90
2019-02-10T18:03:30.248Z,78.70
2019-02-10T18:05:59.419Z,78.55
2019-02-10T18:08:27.514Z,78.71
2019-02-10T18:10:56.537Z,78.60
2019-02-10T18:13:25.553Z,77.85
2019-02-10T18:16:02.276Z,77.58
2019-02-10T18:18:48.476Z,77.49
2019-02-10T18:21:36.792Z,78.33
2019-02-10T18:24:04.587Z,77.50
2019-02-10T18:26:32.486Z,77.15
2019-02-10T18:29:00.267Z,76.42
2019-02-10T18:31:44.973Z,76.42
2019-02-10T18:34:18.690Z,76.23
2019-02-10T18:36:49.370Z,75.64
2019-02-10T18:39:17.167Z,76.05
2019-02-10T18:41:47.779Z,76.13
2019-02-10T18:44:21.297Z,75.83
2019-02-10T18:46:58.309Z,76.24
2019-02-10T18:49:32.689Z,76.75
2019-02-10T18:52:12.361Z,76.75
2019-02-10T18:54:46.146Z,76.67
2019-02-10T18:57:17.210Z,77.77
2019-02-10T18:59:45.490Z,78.25
2019-02-10T19:02:20.466Z,78.19
2019-02-10T19:04:51.207Z,78.61
2019-02-10T19:07:21.885Z,79.23
2019-02-10T19:09:52.480Z,79.50
2019-02-10T19:12:32.739Z,79.29
2019-02-10T19:15:09.472Z,79.54
2019-02-10T19:17:37.399Z,81.29
2019-02-10T19:20:08.967Z,82.36
2019-02-10T19:22:42.911Z,83.72
2019-02-10T19:25:10.784Z,84.53
2019-02-10T19:27:41.185Z,86.18
2019-02-10T19:30:17.531Z,86.23
2019-02-10T19:32:45.381Z,87.14
2019-02-10T19:35:16.185Z,89.45
2019-02-10T19:37:46.703Z,89.45
2019-02-10T19:40:26.845Z,91.20
2019-02-10T19:43:00.470Z,91.20
2019-02-10T19:45:44.793Z,92.84
2019-02-10T19:48:15.791Z,93.13
2019-02-10T19:50:49.678Z,93.13
2019-02-10T19:53:17.473Z,92.93
2019-02-10T19:55:51.540Z,93.22
2019-02-10T19:58:22.750Z,93.43
2019-02-10T20:00:56.761Z,93.69
2019-02-10T20:03:40.995Z,93.86
2019-02-10T20:06:09.146Z,93.22
2019-02-10T20:08:39.668Z,93.22
2019-02-10T20:11:07.866Z,93.61
2019-02-10T20:13:53.915Z,93.74
2019-02-10T20:16:21.811Z,93.14
2019-02-10T20:18:58.460Z,92.04
2019-02-10T20:21:29.049Z,91.65
2019-02-10T20:23:56.915Z,91.65
2019-02-10T20:26:27.695Z,91.61
2019-02-10T20:28:55.473Z,91.70
2019-02-10T20:31:29.790Z,91.36
2019-02-10T20:33:57.571Z,91.48
2019-02-10T20:36:25.499Z,90.85
2019-02-10T20:39:07.996Z,91.20
2019-02-10T20:41:47.991Z,91.45
2019-02-10T20:44:15.754Z,91.54
2019-02-10T20:47:00.043Z,91.25
2019-02-10T20:49:44.281Z,91.41
2019-02-10T20:52:18.072Z,91.17
2019-02-10T20:54:45.826Z,91.22
2019-02-10T20:57:13.672Z,91.27
2019-02-10T20:59:56.684Z,90.98
2019-02-10T21:02:33.878Z,91.19
2019-02-10T21:05:01.634Z,92.36
2019-02-10T21:07:29.441Z,92.36
2019-02-10T21:10:00.558Z,92.70
2019-02-10T21:12:31.312Z,92.97
2019-02-10T21:15:05.514Z,92.11
2019-02-10T21:17:37.137Z,91.48
2019-02-10T21:20:13.820Z,91.19
2019-02-10T21:22:41.733Z,91.01
2019-02-10T21:25:10.091Z,91.36
2019-02-10T21:27:53.651Z,91.60
2019-02-10T21:30:30.215Z,91.60
2019-02-10T21:33:06.755Z,91.31
2019-02-10T21:35:37.268Z,90.71
2019-02-10T21:38:08.173Z,90.68
2019-02-10T21:40:42.032Z,91.32
2019-02-10T21:43:15.516Z,91.57
2019-02-10T21:45:49.317Z,92.17
2019-02-10T21:48:17.118Z,92.59
2019-02-10T21:50:42.984Z,92.59
2019-02-10T21:53:08.799Z,92.36
2019-02-10T21:55:34.663Z,92.33
2019-02-10T21:58:00.568Z,92.65
2019-02-10T22:00:26.440Z,92.34
2019-02-10T22:02:52.295Z,91.74
2019-02-10T22:05:18.395Z,92.59
2019-02-10T22:07:44.232Z,92.72
2019-02-10T22:10:10.894Z,92.34
2019-02-10T22:12:37.225Z,93.15
2019-02-10T22:15:06.125Z,93.00
2019-02-10T22:17:32.055Z,92.96
2019-02-10T22:19:57.917Z,92.64
2019-02-10T22:22:23.776Z,92.54
2019-02-10T22:24:49.641Z,93.27
2019-02-10T22:27:15.523Z,92.97
2019-02-10T22:29:41.355Z,92.78
2019-02-10T22:32:07.341Z,92.77
2019-02-10T22:34:33.274Z,92.69
2019-02-10T22:37:02.663Z,92.46
2019-02-10T22:39:28.700Z,92.61
2019-02-10T22:41:54.556Z,92.60
2019-02-10T22:44:20.398Z,92.79
2019-02-10T22:46:46.235Z,92.96
2019-02-10T22:49:12.101Z,93.14
2019-02-10T22:51:38.093Z,93.10
2019-02-10T22:54:04.025Z,93.21
2019-02-10T22:56:30.007Z,93.22
2019-02-10T22:58:55.881Z,93.09
2019-02-10T23:01:21.816Z,93.29
2019-02-10T23:03:47.683Z,93.02
2019-02-10T23:06:13.623Z,92.90
2019-02-10T23:08:39.575Z,93.13
2019-02-10T23:11:05.535Z,92.89
2019-02-10T23:13:31.521Z,93.00
2019-02-10T23:15:57.350Z,92.96
2019-02-10T23:18:23.437Z,93.51
2019-02-10T23:20:49.256Z,93.72
2019-02-10T23:23:15.135Z,93.35
2019-02-10T23:25:40.959Z,93.18
2019-02-10T23:28:06.837Z,93.00
2019-02-10T23:30:32.660Z,92.87
2019-02-10T23:32:58.500Z,92.81
2019-02-10T23:35:24.471Z,93.24
2019-02-10T23:37:50.315Z,93.08
2019-02-10T23:40:16.142Z,92.93
2019-02-10T23:42:41.955Z,92.88
2019-02-10T23:45:08.215Z,92.81
2019-02-10T23:47:34.034Z,92.55
2019-02-10T23:49:59.877Z,92.60
2019-02-10T23:52:25.723Z,91.70
2019-02-10T23:54:51.576Z,91.59
2019-02-10T23:57:17.427Z,91.42
2019-02-10T23:59:43.289Z,91.47
